createdAt,value
2023-02-02T00:01:56.527Z,100068.03
2023-02-02T00:04:40.278Z,100058.91
2023-02-02T00:07:23.952Z,100045.88
2023-02-02T00:10:08.537Z,100056.28
2023-02-02T00:12:52.321Z,100036.13
2023-02-02T00:15:37.549Z,100019.66
2023-02-02T00:18:21.360Z,100050.88
2023-02-02T00:21:05.326Z,100044.38
2023-02-02T00:23:48.996Z,100042.06
2023-02-02T00:26:32.944Z,100035.94
2023-02-02T00:29:19.175Z,100026.47
2023-02-02T00:32:06.319Z,100044.03
2023-02-02T00:34:50.929Z,100012.13
2023-02-02T00:37:34.821Z,100051.59
2023-02-02T00:40:19.536Z,100057.63
2023-02-02T00:43:03.311Z,100067.34
2023-02-02T00:45:46.733Z,100048.81
2023-02-02T00:48:31.988Z,100035.72
2023-02-02T00:51:15.734Z,100029.84
2023-02-02T00:53:59.595Z,100026.06
2023-02-02T00:56:44.221Z,100002.31
2023-02-02T00:59:28.751Z,100019.53
2023-02-02T01:02:13.123Z,100012.78
2023-02-02T01:04:58.402Z,100008.44
2023-02-02T01:07:42.169Z,100018.16
2023-02-02T01:10:26.078Z,100001.34
2023-02-02T01:13:11.148Z,99989.72
2023-02-02T01:15:56.839Z,99984.38
2023-02-02T01:18:40.654Z,99956.22
2023-02-02T01:21:25.722Z,99997.25
2023-02-02T01:24:10.059Z,99999.16
2023-02-02T01:26:53.894Z,100003.31
2023-02-02T01:29:37.698Z,100002.22
2023-02-02T01:32:21.969Z,100004.22
2023-02-02T01:35:06.237Z,99982.16
2023-02-02T01:37:51.350Z,100001.78
2023-02-02T01:40:34.988Z,99995.63
2023-02-02T01:43:25.148Z,99994.97
2023-02-02T01:46:12.301Z,99996.78
2023-02-02T01:49:05.066Z,99977.91
2023-02-02T01:51:51.524Z,99995.06
2023-02-02T01:54:39.787Z,100003.03
2023-02-02T01:57:29.772Z,100005.16
2023-02-02T02:00:16.826Z,99997.34
2023-02-02T02:03:03.623Z,99970.31
2023-02-02T02:05:52.897Z,99997.88
2023-02-02T02:08:40.328Z,100000.81
2023-02-02T02:11:26.303Z,99967.09
2023-02-02T02:14:30.536Z,99996.50
2023-02-02T02:17:24.760Z,99945.78
2023-02-02T02:20:50.819Z,99974.09
2023-02-02T02:24:52.689Z,99996.03
2023-02-02T02:28:14.360Z,99993.88
2023-02-02T02:31:29.379Z,99985.38
2023-02-02T02:34:22.966Z,99997.69
2023-02-02T02:37:11.710Z,99877.94
2023-02-02T02:40:01.553Z,99971.38
2023-02-02T02:42:51.114Z,99976.53
2023-02-02T02:45:36.656Z,100002.41
2023-02-02T02:48:20.437Z,99999.28
2023-02-02T02:51:30.079Z,99999.38
2023-02-02T02:54:16.440Z,99798.63
2023-02-02T02:57:17.074Z,99996.78
2023-02-02T03:00:10.003Z,99990.78
2023-02-02T03:03:03.271Z,99980.53
2023-02-02T03:05:55.251Z,99966.50
2023-02-02T03:08:46.726Z,99986.53
2023-02-02T03:11:30.702Z,99986.41
2023-02-02T03:14:14.578Z,99981.16
2023-02-02T03:16:58.343Z,99995.16
2023-02-02T03:19:42.098Z,99967.75
2023-02-02T03:22:25.927Z,99981.44
2023-02-02T03:25:12.097Z,99982.78
2023-02-02T03:27:57.462Z,99973.81
2023-02-02T03:30:43.256Z,99986.41
2023-02-02T03:33:27.197Z,99974.41
2023-02-02T03:36:11.275Z,99986.41
2023-02-02T03:38:54.986Z,99991.34
2023-02-02T03:41:40.127Z,99939.88
2023-02-02T03:44:23.834Z,99991.53
2023-02-02T03:47:07.548Z,99984.66
2023-02-02T03:49:51.245Z,99981.19
2023-02-02T03:52:35.023Z,99988.56
2023-02-02T03:55:18.829Z,99988.44
2023-02-02T03:58:04.068Z,99986.13
2023-02-02T04:00:47.805Z,99982.13
2023-02-02T04:03:31.879Z,99977.63
2023-02-02T04:06:15.554Z,99993.28
2023-02-02T04:08:59.196Z,99990.72
2023-02-02T04:11:43.030Z,99978.44
2023-02-02T04:14:28.237Z,99983.66
2023-02-02T04:17:12.088Z,99996.31
2023-02-02T04:19:58.288Z,99991.34
2023-02-02T04:22:42.063Z,99987.13
2023-02-02T04:25:26.226Z,99997.72
2023-02-02T04:28:10.210Z,99972.03
2023-02-02T04:30:56.391Z,100000.56
2023-02-02T04:33:40.290Z,100007.53
2023-02-02T04:36:24.746Z,100010.00
2023-02-02T04:39:08.487Z,99977.84
2023-02-02T04:41:52.156Z,99988.19
2023-02-02T04:44:35.957Z,100003.72
2023-02-02T04:47:21.080Z,100013.94
2023-02-02T04:50:05.128Z,100017.38
2023-02-02T04:52:48.845Z,100009.69
2023-02-02T04:55:32.717Z,100012.16
2023-02-02T04:58:16.590Z,100015.78
2023-02-02T05:01:00.307Z,99994.38
2023-02-02T05:03:46.025Z,99989.00
2023-02-02T05:06:29.841Z,100006.22
2023-02-02T05:09:15.097Z,100010.63
2023-02-02T05:11:58.923Z,100006.31
2023-02-02T05:14:42.688Z,100004.72
2023-02-02T05:17:26.339Z,100001.91
2023-02-02T05:20:13.041Z,99983.22
2023-02-02T05:22:56.685Z,100008.22
2023-02-02T05:25:40.391Z,99990.41
2023-02-02T05:28:25.188Z,100013.06
2023-02-02T05:31:09.100Z,100020.50
2023-02-02T05:33:52.867Z,100027.34
2023-02-02T05:36:38.114Z,100006.25
2023-02-02T05:39:21.852Z,100002.72
2023-02-02T05:42:05.773Z,100035.00
2023-02-02T05:44:49.529Z,100036.25
2023-02-02T05:47:35.768Z,100038.81
2023-02-02T05:50:19.451Z,99914.03
2023-02-02T05:53:05.357Z,100046.25
2023-02-02T05:55:49.073Z,100042.59
2023-02-02T05:58:32.811Z,100050.78
2023-02-02T06:01:17.087Z,100052.59
2023-02-02T06:04:00.944Z,100024.69
2023-02-02T06:06:45.017Z,100015.41
2023-02-02T06:09:30.047Z,100009.66
2023-02-02T06:12:13.887Z,100015.09
2023-02-02T06:14:57.668Z,100039.00
2023-02-02T06:17:41.637Z,100015.09
2023-02-02T06:20:25.643Z,100020.25
2023-02-02T06:23:09.665Z,100054.47
2023-02-02T06:25:55.020Z,100053.03
2023-02-02T06:28:38.865Z,100036.03
2023-02-02T06:31:23.404Z,100013.69
2023-02-02T06:34:08.515Z,100046.03
2023-02-02T06:36:52.438Z,100052.16
2023-02-02T06:39:36.449Z,100020.44
2023-02-02T06:42:22.196Z,100027.22
2023-02-02T06:45:07.929Z,100067.25
2023-02-02T06:47:51.903Z,100051.88
2023-02-02T06:50:35.923Z,100060.31
2023-02-02T06:53:23.248Z,100028.13
2023-02-02T06:56:09.317Z,100077.63
2023-02-02T06:58:54.643Z,100057.28
2023-02-02T07:01:38.573Z,100040.88
2023-02-02T07:04:22.566Z,100040.22
2023-02-02T07:07:06.669Z,100031.97
2023-02-02T07:09:57.751Z,100011.44
2023-02-02T07:12:42.517Z,100095.53
2023-02-02T07:15:27.983Z,100055.91
2023-02-02T07:18:11.997Z,100090.53
2023-02-02T07:20:55.885Z,100044.16
2023-02-02T07:23:39.805Z,100043.81
2023-02-02T07:26:23.873Z,100052.56
2023-02-02T07:29:07.932Z,100083.06
2023-02-02T07:31:53.421Z,100088.25
2023-02-02T07:34:39.512Z,100048.38
2023-02-02T07:37:23.545Z,100090.56
2023-02-02T07:40:08.870Z,100095.22
2023-02-02T07:42:52.853Z,100060.59
2023-02-02T07:45:37.818Z,100090.97
2023-02-02T07:48:23.511Z,100054.44
2023-02-02T07:51:08.984Z,100047.53
2023-02-02T07:53:54.600Z,100054.44
2023-02-02T07:56:39.978Z,100061.41
2023-02-02T07:59:24.095Z,100093.63
2023-02-02T08:02:08.067Z,100104.47
2023-02-02T08:04:53.424Z,100063.91
2023-02-02T08:07:37.427Z,100067.53
2023-02-02T08:10:21.697Z,100065.75
2023-02-02T08:13:06.005Z,100106.69
2023-02-02T08:15:49.976Z,100081.06
2023-02-02T08:18:34.276Z,100064.84
2023-02-02T08:21:20.974Z,100104.94
2023-02-02T08:24:05.791Z,100103.31
2023-02-02T08:26:49.665Z,100086.47
2023-02-02T08:29:33.468Z,100110.06
2023-02-02T08:32:17.317Z,100105.84
2023-02-02T08:35:01.222Z,100095.75
2023-02-02T08:37:50.604Z,100124.56
2023-02-02T08:40:34.608Z,100108.53
2023-02-02T08:43:18.489Z,100115.72
2023-02-02T08:46:05.577Z,100117.69
2023-02-02T08:48:49.941Z,100128.75
2023-02-02T08:51:33.873Z,100125.47
2023-02-02T08:54:18.971Z,100114.69
2023-02-02T08:57:02.783Z,100112.06
2023-02-02T08:59:46.529Z,100085.97
2023-02-02T09:02:30.339Z,100090.69
2023-02-02T09:05:14.119Z,100117.78
2023-02-02T09:07:58.483Z,100113.13
2023-02-02T09:10:44.465Z,100119.22
2023-02-02T09:13:28.311Z,100112.69
2023-02-02T09:16:14.025Z,100117.03
2023-02-02T09:18:58.424Z,100109.97
2023-02-02T09:21:42.342Z,100086.94
2023-02-02T09:24:26.105Z,100109.81
2023-02-02T09:27:11.193Z,100107.38
2023-02-02T09:29:55.002Z,100123.81
2023-02-02T09:32:38.782Z,100106.53
2023-02-02T09:35:23.185Z,100095.50
2023-02-02T09:38:07.613Z,100106.00
2023-02-02T09:40:51.504Z,100094.16
2023-02-02T09:43:51.759Z,100081.78
2023-02-02T09:46:47.445Z,100090.44
2023-02-02T09:49:39.050Z,100073.72
2023-02-02T09:52:28.104Z,100063.28
2023-02-02T09:55:19.463Z,100069.28
2023-02-02T09:58:11.872Z,100013.28
2023-02-02T10:01:02.712Z,100046.69
2023-02-02T10:03:59.035Z,100037.69
2023-02-02T10:06:44.786Z,99990.34
2023-02-02T10:09:39.045Z,100025.72
2023-02-02T10:12:33.172Z,100008.09
2023-02-02T10:15:24.788Z,100013.41
2023-02-02T10:18:19.644Z,100015.00
2023-02-02T10:21:07.359Z,99998.03
2023-02-02T10:23:51.444Z,100024.47
2023-02-02T10:26:40.737Z,100017.81
2023-02-02T10:29:49.171Z,100022.31
2023-02-02T10:32:42.597Z,99995.66
2023-02-02T10:35:37.336Z,100009.72
2023-02-02T10:38:29.649Z,100014.31
2023-02-02T10:41:21.169Z,100017.69
2023-02-02T10:44:15.759Z,100012.44
2023-02-02T10:47:02.388Z,100015.66
2023-02-02T10:49:46.996Z,100018.19
2023-02-02T10:52:34.597Z,100008.81
2023-02-02T10:55:29.454Z,100009.53
2023-02-02T10:58:24.025Z,99991.22
2023-02-02T11:01:11.865Z,99993.63
2023-02-02T11:04:09.832Z,99988.94
2023-02-02T11:06:53.865Z,100000.16
2023-02-02T11:09:42.609Z,99964.34
2023-02-02T11:12:32.460Z,99966.56
2023-02-02T11:15:27.337Z,99972.25
2023-02-02T11:18:16.743Z,99997.31
2023-02-02T11:21:00.711Z,99978.28
2023-02-02T11:23:53.707Z,99999.59
2023-02-02T11:26:51.572Z,99993.78
2023-02-02T11:29:43.268Z,99994.16
2023-02-02T11:32:30.155Z,99980.88
2023-02-02T11:35:21.101Z,99994.91
2023-02-02T11:38:12.113Z,99983.69
2023-02-02T11:41:02.491Z,99989.06
2023-02-02T11:43:53.445Z,99996.16
2023-02-02T11:46:40.081Z,100001.06
2023-02-02T11:49:25.513Z,99974.25
2023-02-02T11:52:18.568Z,99948.94
2023-02-02T11:55:10.783Z,99978.03
2023-02-02T11:58:20.368Z,99976.88
2023-02-02T12:01:06.942Z,99940.53
2023-02-02T12:03:51.950Z,99930.19
2023-02-02T12:06:38.411Z,99931.72
2023-02-02T12:09:25.033Z,99903.53
2023-02-02T12:12:17.909Z,99954.38
2023-02-02T12:15:09.990Z,99851.31
2023-02-02T12:18:03.831Z,99942.59
2023-02-02T12:20:58.469Z,99934.19
2023-02-02T12:23:55.786Z,99944.72
2023-02-02T12:26:42.777Z,99950.56
2023-02-02T12:29:45.717Z,99947.19
2023-02-02T12:32:45.217Z,99950.34
2023-02-02T12:36:06.141Z,99949.09
2023-02-02T12:39:19.451Z,99944.34
2023-02-02T12:42:27.601Z,99965.78
2023-02-02T12:45:39.350Z,99948.81
2023-02-02T12:48:33.683Z,99949.28
2023-02-02T12:51:35.334Z,99939.31
2023-02-02T12:54:47.605Z,99930.31
2023-02-02T12:57:44.395Z,99906.38
2023-02-02T13:00:55.606Z,99923.84
2023-02-02T13:04:15.738Z,99923.00
2023-02-02T13:07:27.057Z,99902.75
2023-02-02T13:10:19.949Z,99901.44
2023-02-02T13:13:08.921Z,99903.66
2023-02-02T13:15:56.402Z,99904.41
2023-02-02T13:18:49.436Z,99911.06
2023-02-02T13:21:36.093Z,99910.41
2023-02-02T13:24:30.805Z,99910.78
2023-02-02T13:27:19.075Z,99903.47
2023-02-02T13:30:06.285Z,99913.28
2023-02-02T13:32:53.629Z,99909.31
2023-02-02T13:35:44.591Z,99920.19
2023-02-02T13:38:30.573Z,99920.41
2023-02-02T13:41:17.300Z,99915.06
2023-02-02T13:44:05.233Z,99866.13
2023-02-02T13:46:57.288Z,99876.09
2023-02-02T13:49:45.665Z,99857.50
2023-02-02T13:53:00.116Z,99887.19
2023-02-02T13:56:10.862Z,99896.47
2023-02-02T13:59:10.650Z,99874.22
2023-02-02T14:01:55.452Z,99903.22
2023-02-02T14:04:40.333Z,99859.34
2023-02-02T14:07:41.769Z,99884.16
2023-02-02T14:10:31.676Z,99891.66
2023-02-02T14:13:39.304Z,99883.06
2023-02-02T14:16:43.804Z,99876.72
2023-02-02T14:19:49.612Z,99876.19
2023-02-02T14:22:42.191Z,99848.69
2023-02-02T14:25:51.793Z,99876.41
2023-02-02T14:28:44.563Z,99845.03
2023-02-02T14:31:43.463Z,99840.41
2023-02-02T14:34:35.826Z,99842.94
2023-02-02T14:37:44.136Z,99889.91
2023-02-02T14:40:48.750Z,99921.19
2023-02-02T14:43:45.463Z,99899.44
2023-02-02T14:46:39.680Z,99970.16
2023-02-02T14:49:27.577Z,99996.00
2023-02-02T14:52:23.288Z,99983.38
2023-02-02T14:55:17.630Z,100000.06
2023-02-02T14:58:06.079Z,99980.00
2023-02-02T15:00:58.155Z,99997.69
2023-02-02T15:03:53.955Z,100002.06
2023-02-02T15:06:40.726Z,99982.50
2023-02-02T15:09:42.930Z,100019.56
2023-02-02T15:12:34.335Z,100008.25
2023-02-02T15:15:23.415Z,99978.19
2023-02-02T15:18:16.961Z,99987.84
2023-02-02T15:21:07.843Z,99966.91
2023-02-02T15:23:51.926Z,99988.44
2023-02-02T15:26:42.939Z,99977.28
2023-02-02T15:29:36.732Z,100013.88
2023-02-02T15:32:28.194Z,100027.44
2023-02-02T15:35:20.222Z,99986.84
2023-02-02T15:38:14.066Z,100012.50
2023-02-02T15:40:58.049Z,100034.25
2023-02-02T15:43:42.154Z,100005.97
2023-02-02T15:46:27.876Z,100026.81
2023-02-02T15:49:35.653Z,100027.16
2023-02-02T15:52:26.429Z,99991.59
2023-02-02T15:55:22.087Z,99988.28
2023-02-02T15:58:31.218Z,100031.88
2023-02-02T16:01:18.534Z,100036.63
2023-02-02T16:04:20.411Z,100046.16
2023-02-02T16:07:05.527Z,100042.50
2023-02-02T16:09:49.548Z,100062.88
2023-02-02T16:12:36.426Z,100071.09
2023-02-02T16:15:26.867Z,100057.47
2023-02-02T16:18:16.600Z,100074.63
2023-02-02T16:21:03.598Z,100082.53
2023-02-02T16:23:49.204Z,100071.44
2023-02-02T16:26:34.589Z,100079.38
2023-02-02T16:29:20.279Z,100077.66
2023-02-02T16:32:05.566Z,100082.13
2023-02-02T16:34:50.125Z,100082.31
2023-02-02T16:37:36.574Z,100087.00
2023-02-02T16:40:27.315Z,100080.59
2023-02-02T16:43:19.234Z,100069.72
2023-02-02T16:46:09.034Z,100080.53
2023-02-02T16:49:00.585Z,100072.78
2023-02-02T16:51:45.077Z,100083.25
2023-02-02T16:54:28.922Z,100058.22
2023-02-02T16:57:20.729Z,100064.56
2023-02-02T17:00:09.181Z,100048.19
2023-02-02T17:02:58.496Z,100039.13
2023-02-02T17:05:50.845Z,100090.72
2023-02-02T17:08:36.540Z,99909.34
2023-02-02T17:11:24.413Z,100050.22
2023-02-02T17:14:20.712Z,100062.50
2023-02-02T17:17:06.238Z,100068.94
2023-02-02T17:19:51.954Z,100064.38
2023-02-02T17:22:39.300Z,100030.78
2023-02-02T17:25:28.678Z,100073.47
2023-02-02T17:28:13.942Z,100075.50
2023-02-02T17:31:01.030Z,100077.06
2023-02-02T17:33:44.932Z,100079.66
2023-02-02T17:36:30.207Z,100074.03
2023-02-02T17:39:14.101Z,100091.63
2023-02-02T17:41:58.514Z,100082.47
2023-02-02T17:44:42.306Z,100088.06
2023-02-02T17:47:26.029Z,100069.22
2023-02-02T17:50:11.011Z,100077.09
2023-02-02T17:52:56.730Z,100085.25
2023-02-02T17:55:42.604Z,100080.03
2023-02-02T17:58:26.447Z,100073.97
2023-02-02T18:01:12.751Z,100041.22
2023-02-02T18:03:56.710Z,100071.53
2023-02-02T18:06:40.533Z,100072.50
2023-02-02T18:09:25.633Z,100025.91
2023-02-02T18:12:09.621Z,100058.97
2023-02-02T18:14:53.396Z,100080.84
2023-02-02T18:17:37.195Z,100091.03
2023-02-02T18:20:20.904Z,100073.06
2023-02-02T18:23:04.720Z,100066.63
2023-02-02T18:25:49.872Z,100065.81
2023-02-02T18:28:34.376Z,100058.84
2023-02-02T18:31:20.572Z,100063.56
2023-02-02T18:34:04.380Z,100074.34
2023-02-02T18:36:48.257Z,100065.25
2023-02-02T18:39:32.318Z,100055.81
2023-02-02T18:42:17.524Z,100063.75
2023-02-02T18:45:01.760Z,100060.91
2023-02-02T18:47:47.322Z,100064.41
2023-02-02T18:50:31.465Z,100062.84
2023-02-02T18:53:17.954Z,100067.09
2023-02-02T18:56:06.068Z,100077.50
2023-02-02T18:58:51.654Z,100085.19
2023-02-02T19:01:36.601Z,100055.72
2023-02-02T19:04:20.438Z,100094.00
2023-02-02T19:07:23.806Z,100095.03
2023-02-02T19:10:09.588Z,100100.31
2023-02-02T19:12:56.820Z,100099.03
2023-02-02T19:15:43.068Z,100115.59
2023-02-02T19:18:26.970Z,100115.38
2023-02-02T19:21:13.008Z,100112.75
2023-02-02T19:23:56.866Z,100117.97
2023-02-02T19:26:45.608Z,100133.19
2023-02-02T19:29:37.193Z,100136.16
2023-02-02T19:32:25.084Z,100128.53
2023-02-02T19:35:19.005Z,100131.13
2023-02-02T19:38:04.118Z,100141.81
2023-02-02T19:40:48.135Z,100133.84
2023-02-02T19:43:33.212Z,100151.22
2023-02-02T19:46:22.554Z,100147.84
2023-02-02T19:49:14.374Z,100146.25
2023-02-02T19:51:59.456Z,100151.38
2023-02-02T19:54:45.166Z,100138.16
2023-02-02T19:57:36.594Z,100166.59
2023-02-02T20:00:23.686Z,100141.91
2023-02-02T20:03:11.227Z,100163.91
2023-02-02T20:05:58.221Z,100156.31
2023-02-02T20:08:43.734Z,100147.75
2023-02-02T20:11:33.085Z,100170.88
2023-02-02T20:14:30.230Z,100154.00
2023-02-02T20:17:17.652Z,100170.56
2023-02-02T20:20:01.780Z,100172.44
2023-02-02T20:22:48.503Z,100181.88
2023-02-02T20:25:32.883Z,100176.97
2023-02-02T20:28:35.959Z,100134.59
2023-02-02T20:31:22.518Z,100153.72
2023-02-02T20:34:23.836Z,100153.59
2023-02-02T20:37:22.313Z,100114.84
2023-02-02T20:40:25.274Z,100136.38
2023-02-02T20:43:09.272Z,100157.97
2023-02-02T20:45:53.205Z,100140.44
2023-02-02T20:48:37.002Z,100130.91
2023-02-02T20:51:20.984Z,100142.28
2023-02-02T20:54:04.949Z,100137.00
2023-02-02T20:56:50.739Z,100150.75
2023-02-02T20:59:34.589Z,100105.28
2023-02-02T21:02:19.867Z,100139.63
2023-02-02T21:05:03.766Z,100132.81
2023-02-02T21:07:47.984Z,100144.59
2023-02-02T21:10:31.852Z,100143.28
2023-02-02T21:13:17.155Z,100145.63
2023-02-02T21:16:00.974Z,100146.69
2023-02-02T21:18:47.291Z,100150.03
2023-02-02T21:21:31.581Z,100158.91
2023-02-02T21:24:15.723Z,100171.06
2023-02-02T21:27:00.629Z,100181.97
2023-02-02T21:29:45.988Z,100190.47
2023-02-02T21:32:29.983Z,100192.44
2023-02-02T21:35:15.199Z,100200.22
2023-02-02T21:38:01.868Z,100207.56
2023-02-02T21:40:47.273Z,100167.41
2023-02-02T21:43:30.969Z,100206.19
2023-02-02T21:46:20.004Z,100191.53
2023-02-02T21:49:04.837Z,100211.72
2023-02-02T21:51:48.721Z,100215.53
2023-02-02T21:54:38.075Z,100212.09
2023-02-02T21:57:24.028Z,100183.72
2023-02-02T22:00:23.412Z,100215.69
2023-02-02T22:03:23.974Z,100214.16
2023-02-02T22:06:22.943Z,100222.91
2023-02-02T22:09:16.876Z,100228.19
2023-02-02T22:12:02.381Z,100224.78
2023-02-02T22:14:47.757Z,100244.03
2023-02-02T22:17:40.713Z,100231.03
2023-02-02T22:20:34.007Z,100226.78
2023-02-02T22:23:19.740Z,100236.69
2023-02-02T22:26:04.067Z,100237.22
2023-02-02T22:28:47.917Z,100198.00
2023-02-02T22:31:31.770Z,100249.44
2023-02-02T22:34:15.707Z,100239.56
2023-02-02T22:37:00.894Z,100247.03
2023-02-02T22:39:44.753Z,100246.06
2023-02-02T22:42:28.503Z,100218.47
2023-02-02T22:45:12.651Z,100234.78
2023-02-02T22:47:56.559Z,100210.91
2023-02-02T22:50:41.543Z,100181.56
2023-02-02T22:53:26.694Z,100224.63
2023-02-02T22:56:10.625Z,100226.66
2023-02-02T22:58:54.423Z,100229.25
2023-02-02T23:01:38.158Z,100214.09
2023-02-02T23:04:22.339Z,100211.81
2023-02-02T23:07:06.046Z,100197.97
2023-02-02T23:09:51.159Z,100170.06
2023-02-02T23:12:35.155Z,100201.50
2023-02-02T23:15:21.107Z,100205.91
2023-02-02T23:18:05.352Z,100201.06
2023-02-02T23:20:50.510Z,100213.94
2023-02-02T23:23:34.448Z,100213.78
2023-02-02T23:26:19.619Z,100220.78
2023-02-02T23:29:03.598Z,100230.59
2023-02-02T23:31:47.511Z,100203.81
2023-02-02T23:34:31.500Z,100212.38
2023-02-02T23:37:15.699Z,100209.78
2023-02-02T23:39:59.905Z,100178.69
2023-02-02T23:42:45.150Z,100193.56
2023-02-02T23:45:29.254Z,100190.38
2023-02-02T23:48:13.967Z,100210.81
2023-02-02T23:50:58.110Z,100215.31
2023-02-02T23:53:43.082Z,100210.84
2023-02-02T23:56:27.252Z,100216.19
2023-02-02T23:59:13.189Z,100215.56
